sensor_id;sensor_type;location;lat;lon;timestamp;pressure;altitude;pressure_sealevel;temperature;humidity
70338;BME280;57757;53.198;19.646;2024-02-23T00:02:04;97878.21;;;7.33;84.09
70338;BME280;57757;53.198;19.646;2024-02-23T00:04:38;97877.11;;;7.31;83.90
70338;BME280;57757;53.198;19.646;2024-02-23T00:07:10;97872.52;;;7.29;84.01
70338;BME280;57757;53.198;19.646;2024-02-23T00:09:43;97871.38;;;7.28;83.98
70338;BME280;57757;53.198;19.646;2024-02-23T00:12:16;97869.16;;;7.27;84.10
70338;BME280;57757;53.198;19.646;2024-02-23T00:14:49;97863.66;;;7.26;83.93
70338;BME280;57757;53.198;19.646;2024-02-23T00:17:22;97867.67;;;7.25;83.96
70338;BME280;57757;53.198;19.646;2024-02-23T00:19:55;97863.31;;;7.23;83.91
70338;BME280;57757;53.198;19.646;2024-02-23T00:22:28;97855.02;;;7.19;83.77
70338;BME280;57757;53.198;19.646;2024-02-23T00:25:01;97849.29;;;7.16;83.78
70338;BME280;57757;53.198;19.646;2024-02-23T00:27:33;97849.10;;;7.12;83.88
70338;BME280;57757;53.198;19.646;2024-02-23T00:30:06;97844.06;;;7.09;83.90
70338;BME280;57757;53.198;19.646;2024-02-23T00:32:39;97843.15;;;7.06;83.94
70338;BME280;57757;53.198;19.646;2024-02-23T00:35:11;97840.70;;;7.04;83.93
70338;BME280;57757;53.198;19.646;2024-02-23T00:37:44;97835.06;;;7.02;83.87
70338;BME280;57757;53.198;19.646;2024-02-23T00:40:17;97833.54;;;7.01;83.92
70338;BME280;57757;53.198;19.646;2024-02-23T00:42:50;97836.64;;;7.02;83.78
70338;BME280;57757;53.198;19.646;2024-02-23T00:45:22;97837.46;;;7.02;84.00
70338;BME280;57757;53.198;19.646;2024-02-23T00:47:55;97839.69;;;7.03;84.03
70338;BME280;57757;53.198;19.646;2024-02-23T00:50:28;97841.64;;;7.05;84.03
70338;BME280;57757;53.198;19.646;2024-02-23T00:53:01;97843.28;;;7.07;84.01
70338;BME280;57757;53.198;19.646;2024-02-23T00:55:34;97841.94;;;7.10;83.99
70338;BME280;57757;53.198;19.646;2024-02-23T00:58:06;97836.77;;;7.13;84.21
70338;BME280;57757;53.198;19.646;2024-02-23T01:00:39;97836.51;;;7.15;84.16
70338;BME280;57757;53.198;19.646;2024-02-23T01:03:12;97834.27;;;7.19;84.21
70338;BME280;57757;53.198;19.646;2024-02-23T01:05:45;97826.02;;;7.21;84.07
70338;BME280;57757;53.198;19.646;2024-02-23T01:08:19;97821.75;;;7.25;83.96
70338;BME280;57757;53.198;19.646;2024-02-23T01:10:51;97820.45;;;7.26;83.98
70338;BME280;57757;53.198;19.646;2024-02-23T01:13:24;97816.08;;;7.28;83.94
70338;BME280;57757;53.198;19.646;2024-02-23T01:15:57;97813.56;;;7.29;84.08
70338;BME280;57757;53.198;19.646;2024-02-23T01:18:30;97808.98;;;7.32;84.17
70338;BME280;57757;53.198;19.646;2024-02-23T01:21:03;97805.05;;;7.34;84.08
70338;BME280;57757;53.198;19.646;2024-02-23T01:23:36;97805.16;;;7.35;84.06
70338;BME280;57757;53.198;19.646;2024-02-23T01:26:09;97801.76;;;7.37;84.07
70338;BME280;57757;53.198;19.646;2024-02-23T01:28:42;97802.54;;;7.39;84.05
70338;BME280;57757;53.198;19.646;2024-02-23T01:31:14;97799.88;;;7.40;84.00
70338;BME280;57757;53.198;19.646;2024-02-23T01:33:47;97805.30;;;7.43;84.06
70338;BME280;57757;53.198;19.646;2024-02-23T01:36:21;97808.48;;;7.45;83.95
70338;BME280;57757;53.198;19.646;2024-02-23T01:38:54;97806.31;;;7.47;84.00
70338;BME280;57757;53.198;19.646;2024-02-23T01:41:27;97812.29;;;7.48;84.00
70338;BME280;57757;53.198;19.646;2024-02-23T01:43:59;97807.23;;;7.49;83.90
70338;BME280;57757;53.198;19.646;2024-02-23T01:46:33;97808.66;;;7.52;84.04
70338;BME280;57757;53.198;19.646;2024-02-23T01:49:06;97805.96;;;7.54;83.95
70338;BME280;57757;53.198;19.646;2024-02-23T01:51:40;97804.46;;;7.56;84.00
70338;BME280;57757;53.198;19.646;2024-02-23T01:54:13;97799.15;;;7.59;83.86
70338;BME280;57757;53.198;19.646;2024-02-23T01:56:45;97795.60;;;7.60;83.96
70338;BME280;57757;53.198;19.646;2024-02-23T01:59:18;97789.14;;;7.62;83.80
70338;BME280;57757;53.198;19.646;2024-02-23T02:01:51;97793.10;;;7.62;83.68
70338;BME280;57757;53.198;19.646;2024-02-23T02:04:23;97790.30;;;7.62;83.81
70338;BME280;57757;53.198;19.646;2024-02-23T02:06:58;97791.36;;;7.62;83.66
70338;BME280;57757;53.198;19.646;2024-02-23T02:09:31;97789.51;;;7.61;83.61
70338;BME280;57757;53.198;19.646;2024-02-23T02:12:04;97782.42;;;7.61;83.67
70338;BME280;57757;53.198;19.646;2024-02-23T02:14:37;97783.64;;;7.61;83.61
70338;BME280;57757;53.198;19.646;2024-02-23T02:17:09;97789.67;;;7.61;83.61
70338;BME280;57757;53.198;19.646;2024-02-23T02:19:47;97788.80;;;7.62;83.78
70338;BME280;57757;53.198;19.646;2024-02-23T02:22:21;97788.61;;;7.62;83.67
70338;BME280;57757;53.198;19.646;2024-02-23T02:24:53;97787.04;;;7.62;83.71
70338;BME280;57757;53.198;19.646;2024-02-23T02:27:25;97783.55;;;7.62;83.68
70338;BME280;57757;53.198;19.646;2024-02-23T02:29:58;97787.84;;;7.63;83.76
70338;BME280;57757;53.198;19.646;2024-02-23T02:32:31;97787.82;;;7.64;83.68
70338;BME280;57757;53.198;19.646;2024-02-23T02:35:06;97785.55;;;7.64;83.64
70338;BME280;57757;53.198;19.646;2024-02-23T02:37:39;97789.17;;;7.64;83.53
70338;BME280;57757;53.198;19.646;2024-02-23T02:40:12;97796.24;;;7.65;83.52
70338;BME280;57757;53.198;19.646;2024-02-23T02:42:45;97789.12;;;7.66;83.61
70338;BME280;57757;53.198;19.646;2024-02-23T02:45:18;97799.45;;;7.66;83.62
70338;BME280;57757;53.198;19.646;2024-02-23T02:47:50;97798.69;;;7.68;83.60
70338;BME280;57757;53.198;19.646;2024-02-23T02:50:23;97799.86;;;7.69;83.53
70338;BME280;57757;53.198;19.646;2024-02-23T02:52:56;97804.36;;;7.69;83.48
70338;BME280;57757;53.198;19.646;2024-02-23T02:55:30;97805.52;;;7.70;83.46
70338;BME280;57757;53.198;19.646;2024-02-23T02:58:02;97806.70;;;7.70;83.49
70338;BME280;57757;53.198;19.646;2024-02-23T03:00:35;97805.11;;;7.71;83.69
70338;BME280;57757;53.198;19.646;2024-02-23T03:03:07;97817.70;;;7.72;83.57
70338;BME280;57757;53.198;19.646;2024-02-23T03:05:40;97813.17;;;7.72;83.67
70338;BME280;57757;53.198;19.646;2024-02-23T03:08:13;97823.73;;;7.72;83.50
70338;BME280;57757;53.198;19.646;2024-02-23T03:10:46;97822.54;;;7.72;83.55
70338;BME280;57757;53.198;19.646;2024-02-23T03:13:19;97816.00;;;7.71;83.52
70338;BME280;57757;53.198;19.646;2024-02-23T03:15:52;97822.69;;;7.69;83.58
70338;BME280;57757;53.198;19.646;2024-02-23T03:18:24;97825.05;;;7.67;83.72
70338;BME280;57757;53.198;19.646;2024-02-23T03:20:58;97824.84;;;7.64;83.62
70338;BME280;57757;53.198;19.646;2024-02-23T03:23:31;97826.89;;;7.61;83.72
70338;BME280;57757;53.198;19.646;2024-02-23T03:26:06;97827.89;;;7.58;83.76
70338;BME280;57757;53.198;19.646;2024-02-23T03:28:39;97829.44;;;7.55;83.80
70338;BME280;57757;53.198;19.646;2024-02-23T03:31:11;97830.80;;;7.52;83.81
70338;BME280;57757;53.198;19.646;2024-02-23T03:33:44;97829.04;;;7.49;83.90
70338;BME280;57757;53.198;19.646;2024-02-23T03:36:17;97828.10;;;7.47;83.89
70338;BME280;57757;53.198;19.646;2024-02-23T03:38:49;97828.76;;;7.44;83.83
70338;BME280;57757;53.198;19.646;2024-02-23T03:41:22;97833.73;;;7.41;83.86
70338;BME280;57757;53.198;19.646;2024-02-23T03:43:55;97829.18;;;7.39;83.96
70338;BME280;57757;53.198;19.646;2024-02-23T03:46:28;97822.65;;;7.38;84.10
70338;BME280;57757;53.198;19.646;2024-02-23T03:48:58;97821.50;;;7.37;84.15
70338;BME280;57757;53.198;19.646;2024-02-23T03:51:26;97820.21;;;7.35;84.10
70338;BME280;57757;53.198;19.646;2024-02-23T03:53:53;97825.95;;;7.34;84.01
70338;BME280;57757;53.198;19.646;2024-02-23T03:56:21;97827.60;;;7.32;84.16
70338;BME280;57757;53.198;19.646;2024-02-23T03:58:49;97832.80;;;7.32;84.15
70338;BME280;57757;53.198;19.646;2024-02-23T04:01:16;97839.57;;;7.32;84.34
70338;BME280;57757;53.198;19.646;2024-02-23T04:03:44;97843.04;;;7.31;84.33
70338;BME280;57757;53.198;19.646;2024-02-23T04:06:11;97844.24;;;7.31;84.42
70338;BME280;57757;53.198;19.646;2024-02-23T04:08:39;97842.35;;;7.31;84.49
70338;BME280;57757;53.198;19.646;2024-02-23T04:11:08;97835.79;;;7.31;84.49
70338;BME280;57757;53.198;19.646;2024-02-23T04:13:35;97828.88;;;7.31;84.54
70338;BME280;57757;53.198;19.646;2024-02-23T04:16:03;97840.15;;;7.30;84.59
70338;BME280;57757;53.198;19.646;2024-02-23T04:18:30;97840.69;;;7.30;84.59
70338;BME280;57757;53.198;19.646;2024-02-23T04:20:59;97837.40;;;7.29;84.63
70338;BME280;57757;53.198;19.646;2024-02-23T04:23:26;97848.64;;;7.30;84.78
70338;BME280;57757;53.198;19.646;2024-02-23T04:25:54;97845.17;;;7.30;84.71
70338;BME280;57757;53.198;19.646;2024-02-23T04:28:21;97844.98;;;7.30;84.76
70338;BME280;57757;53.198;19.646;2024-02-23T04:30:49;97846.84;;;7.31;84.68
70338;BME280;57757;53.198;19.646;2024-02-23T04:33:16;97846.45;;;7.32;84.90
70338;BME280;57757;53.198;19.646;2024-02-23T04:35:44;97849.77;;;7.32;84.98
70338;BME280;57757;53.198;19.646;2024-02-23T04:38:12;97861.60;;;7.33;85.04
70338;BME280;57757;53.198;19.646;2024-02-23T04:40:40;97862.10;;;7.34;84.97
70338;BME280;57757;53.198;19.646;2024-02-23T04:43:07;97861.01;;;7.35;85.13
70338;BME280;57757;53.198;19.646;2024-02-23T04:45:34;97859.39;;;7.37;85.07
70338;BME280;57757;53.198;19.646;2024-02-23T04:48:03;97861.22;;;7.38;85.21
70338;BME280;57757;53.198;19.646;2024-02-23T04:50:31;97861.38;;;7.38;85.22
70338;BME280;57757;53.198;19.646;2024-02-23T04:52:58;97858.04;;;7.39;85.15
70338;BME280;57757;53.198;19.646;2024-02-23T04:55:26;97862.48;;;7.40;85.18
70338;BME280;57757;53.198;19.646;2024-02-23T04:57:53;97861.24;;;7.41;85.27
70338;BME280;57757;53.198;19.646;2024-02-23T05:00:21;97858.64;;;7.41;85.17
70338;BME280;57757;53.198;19.646;2024-02-23T05:02:49;97863.42;;;7.42;85.26
70338;BME280;57757;53.198;19.646;2024-02-23T05:05:16;97868.39;;;7.43;85.28
70338;BME280;57757;53.198;19.646;2024-02-23T05:07:44;97866.45;;;7.44;85.44
70338;BME280;57757;53.198;19.646;2024-02-23T05:10:11;97867.27;;;7.45;85.47
70338;BME280;57757;53.198;19.646;2024-02-23T05:12:39;97875.15;;;7.47;85.51
70338;BME280;57757;53.198;19.646;2024-02-23T05:15:07;97876.11;;;7.48;85.56
70338;BME280;57757;53.198;19.646;2024-02-23T05:17:34;97879.66;;;7.50;85.61
70338;BME280;57757;53.198;19.646;2024-02-23T05:20:02;97885.45;;;7.52;85.71
70338;BME280;57757;53.198;19.646;2024-02-23T05:22:38;97886.73;;;7.54;85.67
70338;BME280;57757;53.198;19.646;2024-02-23T05:25:07;97889.58;;;7.56;85.73
70338;BME280;57757;53.198;19.646;2024-02-23T05:27:35;97892.77;;;7.58;85.62
70338;BME280;57757;53.198;19.646;2024-02-23T05:30:03;97897.52;;;7.60;85.71
70338;BME280;57757;53.198;19.646;2024-02-23T05:32:30;97894.83;;;7.61;85.79
70338;BME280;57757;53.198;19.646;2024-02-23T05:34:58;97897.31;;;7.64;85.78
70338;BME280;57757;53.198;19.646;2024-02-23T05:37:25;97898.94;;;7.66;85.89
70338;BME280;57757;53.198;19.646;2024-02-23T05:39:54;97903.84;;;7.69;85.85
70338;BME280;57757;53.198;19.646;2024-02-23T05:42:21;97909.29;;;7.70;85.83
70338;BME280;57757;53.198;19.646;2024-02-23T05:44:49;97908.16;;;7.72;85.90
70338;BME280;57757;53.198;19.646;2024-02-23T05:47:17;97913.61;;;7.74;85.89
70338;BME280;57757;53.198;19.646;2024-02-23T05:49:45;97918.53;;;7.76;85.92
70338;BME280;57757;53.198;19.646;2024-02-23T05:52:12;97926.58;;;7.78;85.90
70338;BME280;57757;53.198;19.646;2024-02-23T05:54:40;97927.69;;;7.80;86.05
70338;BME280;57757;53.198;19.646;2024-02-23T05:57:07;97931.89;;;7.83;85.93
70338;BME280;57757;53.198;19.646;2024-02-23T05:59:35;97929.34;;;7.85;85.97
70338;BME280;57757;53.198;19.646;2024-02-23T06:02:03;97934.91;;;7.88;86.04
70338;BME280;57757;53.198;19.646;2024-02-23T06:04:30;97944.41;;;7.92;86.14
70338;BME280;57757;53.198;19.646;2024-02-23T06:06:58;97945.67;;;7.94;86.07
70338;BME280;57757;53.198;19.646;2024-02-23T06:09:26;97946.73;;;7.97;86.03
70338;BME280;57757;53.198;19.646;2024-02-23T06:11:53;97952.35;;;7.99;86.08
70338;BME280;57757;53.198;19.646;2024-02-23T06:14:21;97957.09;;;8.01;86.03
70338;BME280;57757;53.198;19.646;2024-02-23T06:16:50;97966.53;;;8.03;86.09
70338;BME280;57757;53.198;19.646;2024-02-23T06:19:18;97969.41;;;8.04;86.02
70338;BME280;57757;53.198;19.646;2024-02-23T06:21:49;97975.22;;;8.06;86.09
70338;BME280;57757;53.198;19.646;2024-02-23T06:24:17;97977.60;;;8.07;86.04
70338;BME280;57757;53.198;19.646;2024-02-23T06:26:45;97983.23;;;8.08;86.10
70338;BME280;57757;53.198;19.646;2024-02-23T06:29:13;97992.52;;;8.09;86.06
70338;BME280;57757;53.198;19.646;2024-02-23T06:31:41;97990.06;;;8.10;86.04
70338;BME280;57757;53.198;19.646;2024-02-23T06:34:09;97991.94;;;8.11;85.97
70338;BME280;57757;53.198;19.646;2024-02-23T06:36:36;97993.11;;;8.12;86.12
70338;BME280;57757;53.198;19.646;2024-02-23T06:39:04;97998.58;;;8.13;86.11
70338;BME280;57757;53.198;19.646;2024-02-23T06:41:32;98006.67;;;8.14;85.97
70338;BME280;57757;53.198;19.646;2024-02-23T06:44:00;98005.25;;;8.15;86.06
70338;BME280;57757;53.198;19.646;2024-02-23T06:46:28;98011.74;;;8.16;86.04
70338;BME280;57757;53.198;19.646;2024-02-23T06:48:55;98017.24;;;8.17;86.06
70338;BME280;57757;53.198;19.646;2024-02-23T06:51:23;98018.92;;;8.18;86.08
70338;BME280;57757;53.198;19.646;2024-02-23T06:53:51;98022.36;;;8.19;86.14
70338;BME280;57757;53.198;19.646;2024-02-23T06:56:18;98028.01;;;8.21;85.99
70338;BME280;57757;53.198;19.646;2024-02-23T06:58:46;98040.92;;;8.22;86.11
70338;BME280;57757;53.198;19.646;2024-02-23T07:01:13;98040.36;;;8.23;86.22
70338;BME280;57757;53.198;19.646;2024-02-23T07:03:41;98052.94;;;8.24;86.02
70338;BME280;57757;53.198;19.646;2024-02-23T07:06:10;98057.20;;;8.25;86.10
70338;BME280;57757;53.198;19.646;2024-02-23T07:08:38;98061.65;;;8.27;86.04
70338;BME280;57757;53.198;19.646;2024-02-23T07:11:06;98065.33;;;8.30;86.28
70338;BME280;57757;53.198;19.646;2024-02-23T07:13:34;98060.52;;;8.33;86.21
70338;BME280;57757;53.198;19.646;2024-02-23T07:16:01;98066.45;;;8.36;86.19
70338;BME280;57757;53.198;19.646;2024-02-23T07:18:29;98072.08;;;8.38;86.17
70338;BME280;57757;53.198;19.646;2024-02-23T07:20:57;98073.31;;;8.41;86.23
70338;BME280;57757;53.198;19.646;2024-02-23T07:23:24;98077.02;;;8.43;86.18
70338;BME280;57757;53.198;19.646;2024-02-23T07:25:52;98078.65;;;8.45;86.07
70338;BME280;57757;53.198;19.646;2024-02-23T07:28:19;98088.04;;;8.48;86.08
70338;BME280;57757;53.198;19.646;2024-02-23T07:30:47;98093.14;;;8.50;86.18
70338;BME280;57757;53.198;19.646;2024-02-23T07:33:14;98092.11;;;8.53;86.21
70338;BME280;57757;53.198;19.646;2024-02-23T07:35:42;98091.11;;;8.55;86.21
70338;BME280;57757;53.198;19.646;2024-02-23T07:38:10;98096.34;;;8.58;86.07
70338;BME280;57757;53.198;19.646;2024-02-23T07:40:38;98100.56;;;8.61;86.15
70338;BME280;57757;53.198;19.646;2024-02-23T07:43:07;98104.27;;;8.63;86.02
70338;BME280;57757;53.198;19.646;2024-02-23T07:45:34;98104.51;;;8.65;86.07
70338;BME280;57757;53.198;19.646;2024-02-23T07:48:03;98111.13;;;8.68;86.11
70338;BME280;57757;53.198;19.646;2024-02-23T07:50:31;98115.82;;;8.71;86.13
70338;BME280;57757;53.198;19.646;2024-02-23T07:52:58;98124.67;;;8.74;86.13
70338;BME280;57757;53.198;19.646;2024-02-23T07:55:26;98122.62;;;8.78;86.10
70338;BME280;57757;53.198;19.646;2024-02-23T07:57:53;98126.73;;;8.82;86.07
70338;BME280;57757;53.198;19.646;2024-02-23T08:00:28;98128.30;;;8.85;86.11
70338;BME280;57757;53.198;19.646;2024-02-23T08:02:55;98130.70;;;8.89;86.01
70338;BME280;57757;53.198;19.646;2024-02-23T08:05:27;98135.23;;;8.92;85.84
70338;BME280;57757;53.198;19.646;2024-02-23T08:07:55;98141.02;;;8.94;85.91
70338;BME280;57757;53.198;19.646;2024-02-23T08:10:23;98141.09;;;8.96;86.09
70338;BME280;57757;53.198;19.646;2024-02-23T08:12:50;98143.27;;;8.98;86.02
70338;BME280;57757;53.198;19.646;2024-02-23T08:15:18;98147.21;;;8.99;85.96
70338;BME280;57757;53.198;19.646;2024-02-23T08:17:45;98155.46;;;9.00;85.98
70338;BME280;57757;53.198;19.646;2024-02-23T08:20:13;98158.48;;;9.02;86.01
70338;BME280;57757;53.198;19.646;2024-02-23T08:22:41;98162.39;;;9.04;86.02
70338;BME280;57757;53.198;19.646;2024-02-23T08:25:09;98162.48;;;9.05;85.87
70338;BME280;57757;53.198;19.646;2024-02-23T08:27:41;98163.50;;;9.06;85.98
70338;BME280;57757;53.198;19.646;2024-02-23T08:30:10;98165.17;;;9.07;86.04
70338;BME280;57757;53.198;19.646;2024-02-23T08:32:41;98174.41;;;9.09;85.95
70338;BME280;57757;53.198;19.646;2024-02-23T08:35:08;98183.07;;;9.10;85.94
70338;BME280;57757;53.198;19.646;2024-02-23T08:37:37;98187.73;;;9.10;86.02
70338;BME280;57757;53.198;19.646;2024-02-23T08:40:06;98190.65;;;9.11;85.84
70338;BME280;57757;53.198;19.646;2024-02-23T08:42:34;98194.27;;;9.11;85.79
70338;BME280;57757;53.198;19.646;2024-02-23T08:45:02;98197.88;;;9.12;85.80
70338;BME280;57757;53.198;19.646;2024-02-23T08:47:30;98201.47;;;9.13;85.98
70338;BME280;57757;53.198;19.646;2024-02-23T08:50:01;98207.80;;;9.15;85.97
70338;BME280;57757;53.198;19.646;2024-02-23T08:52:29;98214.16;;;9.16;85.92
70338;BME280;57757;53.198;19.646;2024-02-23T08:54:57;98219.19;;;9.16;85.80
70338;BME280;57757;53.198;19.646;2024-02-23T08:57:24;98226.73;;;9.18;85.90
70338;BME280;57757;53.198;19.646;2024-02-23T08:59:53;98229.55;;;9.21;85.79
70338;BME280;57757;53.198;19.646;2024-02-23T09:02:21;98232.89;;;9.23;85.99
70338;BME280;57757;53.198;19.646;2024-02-23T09:04:49;98239.85;;;9.26;85.88
70338;BME280;57757;53.198;19.646;2024-02-23T09:07:16;98243.92;;;9.28;85.79
70338;BME280;57757;53.198;19.646;2024-02-23T09:09:47;98248.67;;;9.30;85.84
70338;BME280;57757;53.198;19.646;2024-02-23T09:12:16;98252.92;;;9.32;85.79
70338;BME280;57757;53.198;19.646;2024-02-23T09:14:44;98258.02;;;9.34;85.81
70338;BME280;57757;53.198;19.646;2024-02-23T09:17:12;98260.50;;;9.36;85.81
70338;BME280;57757;53.198;19.646;2024-02-23T09:19:40;98260.08;;;9.38;85.83
70338;BME280;57757;53.198;19.646;2024-02-23T09:22:07;98267.19;;;9.42;85.69
70338;BME280;57757;53.198;19.646;2024-02-23T09:24:39;98271.34;;;9.45;85.85
70338;BME280;57757;53.198;19.646;2024-02-23T09:27:07;98273.73;;;9.49;85.85
70338;BME280;57757;53.198;19.646;2024-02-23T09:29:34;98275.98;;;9.53;85.94
70338;BME280;57757;53.198;19.646;2024-02-23T09:32:02;98279.23;;;9.57;85.92
70338;BME280;57757;53.198;19.646;2024-02-23T09:34:30;98284.23;;;9.62;85.89
70338;BME280;57757;53.198;19.646;2024-02-23T09:36:58;98289.41;;;9.66;85.84
70338;BME280;57757;53.198;19.646;2024-02-23T09:39:26;98296.53;;;9.69;85.73
70338;BME280;57757;53.198;19.646;2024-02-23T09:41:57;98305.48;;;9.71;85.69
70338;BME280;57757;53.198;19.646;2024-02-23T09:44:33;98308.71;;;9.72;85.66
70338;BME280;57757;53.198;19.646;2024-02-23T09:47:04;98305.98;;;9.74;85.61
70338;BME280;57757;53.198;19.646;2024-02-23T09:49:40;98312.35;;;9.76;85.53
70338;BME280;57757;53.198;19.646;2024-02-23T09:52:08;98317.52;;;9.77;85.44
70338;BME280;57757;53.198;19.646;2024-02-23T09:54:37;98321.41;;;9.78;85.42
70338;BME280;57757;53.198;19.646;2024-02-23T09:57:07;98327.27;;;9.79;85.49
70338;BME280;57757;53.198;19.646;2024-02-23T09:59:37;98334.03;;;9.83;85.34
70338;BME280;57757;53.198;19.646;2024-02-23T10:02:09;98336.79;;;9.87;85.42
70338;BME280;57757;53.198;19.646;2024-02-23T10:04:39;98339.06;;;9.90;85.34
70338;BME280;57757;53.198;19.646;2024-02-23T10:07:07;98343.98;;;9.92;85.08
70338;BME280;57757;53.198;19.646;2024-02-23T10:09:35;98347.61;;;9.96;85.12
70338;BME280;57757;53.198;19.646;2024-02-23T10:12:03;98348.85;;;9.99;84.87
70338;BME280;57757;53.198;19.646;2024-02-23T10:14:31;98348.74;;;10.01;85.23
70338;BME280;57757;53.198;19.646;2024-02-23T10:16:58;98353.08;;;10.04;85.07
70338;BME280;57757;53.198;19.646;2024-02-23T10:19:29;98356.30;;;10.06;84.93
70338;BME280;57757;53.198;19.646;2024-02-23T10:21:57;98360.29;;;10.06;84.74
70338;BME280;57757;53.198;19.646;2024-02-23T10:24:26;98364.20;;;10.08;84.91
70338;BME280;57757;53.198;19.646;2024-02-23T10:26:53;98366.39;;;10.09;84.86
70338;BME280;57757;53.198;19.646;2024-02-23T10:29:21;98369.13;;;10.10;84.86
70338;BME280;57757;53.198;19.646;2024-02-23T10:31:51;98372.45;;;10.09;84.53
70338;BME280;57757;53.198;19.646;2024-02-23T10:34:20;98380.25;;;10.10;84.49
70338;BME280;57757;53.198;19.646;2024-02-23T10:36:48;98387.99;;;10.12;84.65
70338;BME280;57757;53.198;19.646;2024-02-23T10:39:18;98394.83;;;10.14;84.72
70338;BME280;57757;53.198;19.646;2024-02-23T10:42:00;98395.09;;;10.16;84.68
70338;BME280;57757;53.198;19.646;2024-02-23T10:44:29;98397.66;;;10.20;84.68
70338;BME280;57757;53.198;19.646;2024-02-23T10:46:58;98401.08;;;10.25;84.81
70338;BME280;57757;53.198;19.646;2024-02-23T10:49:31;98409.23;;;10.28;84.65
70338;BME280;57757;53.198;19.646;2024-02-23T10:51:59;98421.27;;;10.31;84.62
70338;BME280;57757;53.198;19.646;2024-02-23T10:54:27;98424.79;;;10.34;84.54
70338;BME280;57757;53.198;19.646;2024-02-23T10:56:55;98427.42;;;10.36;84.52
70338;BME280;57757;53.198;19.646;2024-02-23T10:59:23;98434.52;;;10.40;84.47
70338;BME280;57757;53.198;19.646;2024-02-23T11:01:52;98439.81;;;10.42;84.41
70338;BME280;57757;53.198;19.646;2024-02-23T11:04:22;98443.17;;;10.44;84.23
70338;BME280;57757;53.198;19.646;2024-02-23T11:06:59;98445.64;;;10.47;84.36
70338;BME280;57757;53.198;19.646;2024-02-23T11:09:32;98445.98;;;10.50;84.16
70338;BME280;57757;53.198;19.646;2024-02-23T11:12:03;98442.67;;;10.54;84.30
70338;BME280;57757;53.198;19.646;2024-02-23T11:14:37;98446.26;;;10.59;84.31
70338;BME280;57757;53.198;19.646;2024-02-23T11:17:05;98454.30;;;10.65;84.35
70338;BME280;57757;53.198;19.646;2024-02-23T11:19:35;98459.04;;;10.70;84.17
70338;BME280;57757;53.198;19.646;2024-02-23T11:22:04;98463.01;;;10.74;83.83
70338;BME280;57757;53.198;19.646;2024-02-23T11:24:32;98470.98;;;10.75;83.36
70338;BME280;57757;53.198;19.646;2024-02-23T11:27:01;98475.83;;;10.75;82.83
70338;BME280;57757;53.198;19.646;2024-02-23T11:29:36;98474.70;;;10.70;82.12
70338;BME280;57757;53.198;19.646;2024-02-23T11:32:14;98475.40;;;10.66;82.18
70338;BME280;57757;53.198;19.646;2024-02-23T11:34:42;98479.89;;;10.64;81.92
70338;BME280;57757;53.198;19.646;2024-02-23T11:37:10;98478.90;;;10.63;81.87
70338;BME280;57757;53.198;19.646;2024-02-23T11:39:38;98477.86;;;10.62;81.70
70338;BME280;57757;53.198;19.646;2024-02-23T11:42:07;98487.05;;;10.63;81.81
70338;BME280;57757;53.198;19.646;2024-02-23T11:44:35;98484.39;;;10.65;81.61
70338;BME280;57757;53.198;19.646;2024-02-23T11:47:03;98492.21;;;10.65;81.68
70338;BME280;57757;53.198;19.646;2024-02-23T11:49:30;98500.23;;;10.64;81.38
70338;BME280;57757;53.198;19.646;2024-02-23T11:51:59;98503.04;;;10.63;81.47
70338;BME280;57757;53.198;19.646;2024-02-23T11:54:26;98508.45;;;10.63;81.47
70338;BME280;57757;53.198;19.646;2024-02-23T11:56:54;98506.14;;;10.61;81.27
70338;BME280;57757;53.198;19.646;2024-02-23T11:59:22;98505.48;;;10.60;81.29
70338;BME280;57757;53.198;19.646;2024-02-23T12:01:50;98510.70;;;10.59;81.23
70338;BME280;57757;53.198;19.646;2024-02-23T12:04:18;98511.59;;;10.59;81.31
70338;BME280;57757;53.198;19.646;2024-02-23T12:06:46;98518.35;;;10.60;81.15
70338;BME280;57757;53.198;19.646;2024-02-23T12:09:14;98525.80;;;10.57;81.00
70338;BME280;57757;53.198;19.646;2024-02-23T12:11:43;98527.73;;;10.56;81.17
70338;BME280;57757;53.198;19.646;2024-02-23T12:14:10;98527.86;;;10.57;81.09
70338;BME280;57757;53.198;19.646;2024-02-23T12:16:39;98524.06;;;10.57;80.77
70338;BME280;57757;53.198;19.646;2024-02-23T12:19:08;98526.29;;;10.57;80.91
70338;BME280;57757;53.198;19.646;2024-02-23T12:21:35;98525.65;;;10.60;80.99
70338;BME280;57757;53.198;19.646;2024-02-23T12:24:06;98521.25;;;10.64;81.00
70338;BME280;57757;53.198;19.646;2024-02-23T12:26:35;98524.95;;;10.70;81.16
70338;BME280;57757;53.198;19.646;2024-02-23T12:29:03;98522.34;;;10.77;81.01
70338;BME280;57757;53.198;19.646;2024-02-23T12:31:32;98528.11;;;10.83;80.98
70338;BME280;57757;53.198;19.646;2024-02-23T12:34:00;98535.67;;;10.88;80.89
70338;BME280;57757;53.198;19.646;2024-02-23T12:36:28;98538.77;;;10.92;80.80
70338;BME280;57757;53.198;19.646;2024-02-23T12:38:55;98544.23;;;10.94;80.59
70338;BME280;57757;53.198;19.646;2024-02-23T12:41:23;98542.72;;;10.96;80.52
70338;BME280;57757;53.198;19.646;2024-02-23T12:43:50;98550.16;;;10.97;80.41
70338;BME280;57757;53.198;19.646;2024-02-23T12:46:19;98553.95;;;10.98;80.41
70338;BME280;57757;53.198;19.646;2024-02-23T12:48:47;98552.05;;;10.98;80.30
70338;BME280;57757;53.198;19.646;2024-02-23T12:51:14;98544.54;;;10.98;80.20
70338;BME280;57757;53.198;19.646;2024-02-23T12:53:42;98543.02;;;11.01;80.21
70338;BME280;57757;53.198;19.646;2024-02-23T12:56:12;98545.96;;;11.01;80.31
70338;BME280;57757;53.198;19.646;2024-02-23T12:58:44;98545.48;;;11.04;80.36
70338;BME280;57757;53.198;19.646;2024-02-23T13:01:12;98548.63;;;11.07;80.48
70338;BME280;57757;53.198;19.646;2024-02-23T13:03:40;98551.39;;;11.11;80.59
70338;BME280;57757;53.198;19.646;2024-02-23T13:06:08;98555.64;;;11.13;80.62
70338;BME280;57757;53.198;19.646;2024-02-23T13:08:36;98560.73;;;11.15;80.60
70338;BME280;57757;53.198;19.646;2024-02-23T13:11:04;98567.75;;;11.17;80.39